sensor_id;sensor_type;location;lat;lon;timestamp;temperature;humidity
429;DHT22;201;48.758;9.290;2023-09-30T00:00:35;16.60;1.00
429;DHT22;201;48.758;9.290;2023-09-30T00:03:02;16.60;1.00
429;DHT22;201;48.758;9.290;2023-09-30T00:05:27;16.50;1.00
429;DHT22;201;48.758;9.290;2023-09-30T00:07:53;16.50;1.00
429;DHT22;201;48.758;9.290;2023-09-30T00:10:18;16.50;1.00
429;DHT22;201;48.758;9.290;2023-09-30T00:12:44;16.40;1.00
429;DHT22;201;48.758;9.290;2023-09-30T00:15:11;16.40;1.00
429;DHT22;201;48.758;9.290;2023-09-30T00:17:36;16.40;1.00
429;DHT22;201;48.758;9.290;2023-09-30T00:20:02;16.40;1.00
429;DHT22;201;48.758;9.290;2023-09-30T00:22:29;16.40;1.00
429;DHT22;201;48.758;9.290;2023-09-30T00:24:55;16.50;1.00
429;DHT22;201;48.758;9.290;2023-09-30T00:27:20;16.40;1.00
429;DHT22;201;48.758;9.290;2023-09-30T00:29:46;16.40;1.00
429;DHT22;201;48.758;9.290;2023-09-30T00:32:11;16.40;1.00
429;DHT22;201;48.758;9.290;2023-09-30T00:34:37;16.30;1.00
429;DHT22;201;48.758;9.290;2023-09-30T00:37:03;16.30;1.00
429;DHT22;201;48.758;9.290;2023-09-30T00:39:29;16.10;1.00
429;DHT22;201;48.758;9.290;2023-09-30T00:41:57;16.20;1.00
429;DHT22;201;48.758;9.290;2023-09-30T00:44:24;16.20;1.00
429;DHT22;201;48.758;9.290;2023-09-30T00:46:50;16.20;1.00
429;DHT22;201;48.758;9.290;2023-09-30T00:49:16;16.10;1.00
429;DHT22;201;48.758;9.290;2023-09-30T00:51:44;16.10;1.00
429;DHT22;201;48.758;9.290;2023-09-30T00:54:10;16.10;1.00
429;DHT22;201;48.758;9.290;2023-09-30T00:56:47;16.00;1.00
429;DHT22;201;48.758;9.290;2023-09-30T00:59:14;15.90;1.00
429;DHT22;201;48.758;9.290;2023-09-30T01:01:43;15.90;1.00
429;DHT22;201;48.758;9.290;2023-09-30T01:04:10;15.80;1.00
429;DHT22;201;48.758;9.290;2023-09-30T01:06:36;15.80;1.00
429;DHT22;201;48.758;9.290;2023-09-30T01:09:01;15.80;1.00
429;DHT22;201;48.758;9.290;2023-09-30T01:11:28;15.80;1.00
429;DHT22;201;48.758;9.290;2023-09-30T01:13:54;15.70;1.00
429;DHT22;201;48.758;9.290;2023-09-30T01:16:20;15.60;1.00
429;DHT22;201;48.758;9.290;2023-09-30T01:18:46;15.60;1.00
429;DHT22;201;48.758;9.290;2023-09-30T01:21:11;15.60;1.00
429;DHT22;201;48.758;9.290;2023-09-30T01:23:37;15.50;1.00
429;DHT22;201;48.758;9.290;2023-09-30T01:26:11;15.50;1.00
429;DHT22;201;48.758;9.290;2023-09-30T01:28:38;15.50;1.00
429;DHT22;201;48.758;9.290;2023-09-30T01:31:04;15.60;1.00
429;DHT22;201;48.758;9.290;2023-09-30T01:33:30;15.60;1.00
429;DHT22;201;48.758;9.290;2023-09-30T01:35:56;15.50;1.00
429;DHT22;201;48.758;9.290;2023-09-30T01:38:22;15.50;1.00
429;DHT22;201;48.758;9.290;2023-09-30T01:40:47;15.60;1.00
429;DHT22;201;48.758;9.290;2023-09-30T01:43:14;15.60;1.00
429;DHT22;201;48.758;9.290;2023-09-30T01:45:40;15.60;1.00
429;DHT22;201;48.758;9.290;2023-09-30T01:48:06;15.60;1.00
429;DHT22;201;48.758;9.290;2023-09-30T01:50:32;15.50;1.00
429;DHT22;201;48.758;9.290;2023-09-30T01:52:57;15.50;1.00
429;DHT22;201;48.758;9.290;2023-09-30T01:55:23;15.40;1.00
429;DHT22;201;48.758;9.290;2023-09-30T01:57:48;15.40;1.00
429;DHT22;201;48.758;9.290;2023-09-30T02:00:14;15.30;1.00
429;DHT22;201;48.758;9.290;2023-09-30T02:02:40;15.30;1.00
429;DHT22;201;48.758;9.290;2023-09-30T02:05:05;15.30;1.00
429;DHT22;201;48.758;9.290;2023-09-30T02:07:34;15.30;1.10
429;DHT22;201;48.758;9.290;2023-09-30T02:09:59;15.30;1.10
429;DHT22;201;48.758;9.290;2023-09-30T02:12:26;15.30;1.20
429;DHT22;201;48.758;9.290;2023-09-30T02:14:53;15.30;1.30
429;DHT22;201;48.758;9.290;2023-09-30T02:17:19;15.30;1.10
429;DHT22;201;48.758;9.290;2023-09-30T02:19:44;15.30;1.00
429;DHT22;201;48.758;9.290;2023-09-30T02:22:10;15.30;1.10
429;DHT22;201;48.758;9.290;2023-09-30T02:24:36;15.20;1.10
429;DHT22;201;48.758;9.290;2023-09-30T02:27:01;15.20;1.10
429;DHT22;201;48.758;9.290;2023-09-30T02:29:27;15.20;1.20
429;DHT22;201;48.758;9.290;2023-09-30T02:31:53;15.10;1.70
429;DHT22;201;48.758;9.290;2023-09-30T02:34:20;15.00;1.60
429;DHT22;201;48.758;9.290;2023-09-30T02:36:45;15.00;2.10
429;DHT22;201;48.758;9.290;2023-09-30T02:39:11;14.90;2.50
429;DHT22;201;48.758;9.290;2023-09-30T02:41:36;14.90;3.00
429;DHT22;201;48.758;9.290;2023-09-30T02:44:03;14.80;3.10
429;DHT22;201;48.758;9.290;2023-09-30T02:46:29;14.70;3.60
429;DHT22;201;48.758;9.290;2023-09-30T02:48:55;14.60;4.10
429;DHT22;201;48.758;9.290;2023-09-30T02:51:20;14.60;4.10
429;DHT22;201;48.758;9.290;2023-09-30T02:53:46;14.50;4.40
429;DHT22;201;48.758;9.290;2023-09-30T02:56:14;14.50;5.00
429;DHT22;201;48.758;9.290;2023-09-30T02:58:39;14.40;5.60
429;DHT22;201;48.758;9.290;2023-09-30T03:01:06;14.50;6.10
429;DHT22;201;48.758;9.290;2023-09-30T03:03:35;14.50;6.50
429;DHT22;201;48.758;9.290;2023-09-30T03:06:00;14.50;6.70
429;DHT22;201;48.758;9.290;2023-09-30T03:08:26;14.50;6.70
429;DHT22;201;48.758;9.290;2023-09-30T03:10:52;14.60;6.80
429;DHT22;201;48.758;9.290;2023-09-30T03:13:18;14.60;6.50
429;DHT22;201;48.758;9.290;2023-09-30T03:15:47;14.70;6.60
429;DHT22;201;48.758;9.290;2023-09-30T03:18:15;14.70;6.40
429;DHT22;201;48.758;9.290;2023-09-30T03:20:42;14.80;5.90
429;DHT22;201;48.758;9.290;2023-09-30T03:23:08;14.80;5.70
429;DHT22;201;48.758;9.290;2023-09-30T03:25:35;14.90;5.70
429;DHT22;201;48.758;9.290;2023-09-30T03:28:00;15.00;5.40
429;DHT22;201;48.758;9.290;2023-09-30T03:30:26;15.10;4.80
429;DHT22;201;48.758;9.290;2023-09-30T03:32:51;15.20;4.60
429;DHT22;201;48.758;9.290;2023-09-30T03:35:17;15.30;4.60
429;DHT22;201;48.758;9.290;2023-09-30T03:37:44;15.30;4.60
429;DHT22;201;48.758;9.290;2023-09-30T03:40:10;15.40;4.20
429;DHT22;201;48.758;9.290;2023-09-30T03:42:42;15.40;3.70
429;DHT22;201;48.758;9.290;2023-09-30T03:45:09;15.40;3.40
429;DHT22;201;48.758;9.290;2023-09-30T03:47:39;15.50;3.30
429;DHT22;201;48.758;9.290;2023-09-30T03:50:05;15.50;3.20
429;DHT22;201;48.758;9.290;2023-09-30T03:52:38;15.30;3.10
429;DHT22;201;48.758;9.290;2023-09-30T03:55:04;15.20;3.60
429;DHT22;201;48.758;9.290;2023-09-30T03:57:33;15.00;4.40
429;DHT22;201;48.758;9.290;2023-09-30T04:00:01;14.90;4.30
429;DHT22;201;48.758;9.290;2023-09-30T04:02:31;14.80;4.20
429;DHT22;201;48.758;9.290;2023-09-30T04:04:56;14.80;4.20
429;DHT22;201;48.758;9.290;2023-09-30T04:07:23;14.70;4.20
429;DHT22;201;48.758;9.290;2023-09-30T04:09:54;14.70;4.60
429;DHT22;201;48.758;9.290;2023-09-30T04:12:20;14.70;4.20
429;DHT22;201;48.758;9.290;2023-09-30T04:14:46;14.70;4.20
429;DHT22;201;48.758;9.290;2023-09-30T04:17:11;14.70;4.20
429;DHT22;201;48.758;9.290;2023-09-30T04:19:37;14.70;4.20
429;DHT22;201;48.758;9.290;2023-09-30T04:22:03;14.60;4.10
429;DHT22;201;48.758;9.290;2023-09-30T04:24:29;14.60;4.60
429;DHT22;201;48.758;9.290;2023-09-30T04:26:54;14.60;4.60
429;DHT22;201;48.758;9.290;2023-09-30T04:29:27;14.60;4.50
429;DHT22;201;48.758;9.290;2023-09-30T04:31:52;14.80;4.20
429;DHT22;201;48.758;9.290;2023-09-30T04:34:18;14.80;4.20
429;DHT22;201;48.758;9.290;2023-09-30T04:36:44;14.70;4.20
429;DHT22;201;48.758;9.290;2023-09-30T04:39:10;14.80;4.20
429;DHT22;201;48.758;9.290;2023-09-30T04:41:38;14.80;4.20
429;DHT22;201;48.758;9.290;2023-09-30T04:44:09;14.90;4.30
429;DHT22;201;48.758;9.290;2023-09-30T04:46:36;15.00;4.40
429;DHT22;201;48.758;9.290;2023-09-30T04:49:08;15.10;4.50
429;DHT22;201;48.758;9.290;2023-09-30T04:51:34;15.00;4.30
429;DHT22;201;48.758;9.290;2023-09-30T04:54:00;15.00;4.40
429;DHT22;201;48.758;9.290;2023-09-30T04:56:27;14.90;4.30
429;DHT22;201;48.758;9.290;2023-09-30T04:58:52;15.00;5.00
429;DHT22;201;48.758;9.290;2023-09-30T05:01:18;15.10;4.50
429;DHT22;201;48.758;9.290;2023-09-30T05:03:44;15.20;3.90
429;DHT22;201;48.758;9.290;2023-09-30T05:06:10;15.20;3.20
429;DHT22;201;48.758;9.290;2023-09-30T05:08:36;15.20;3.00
429;DHT22;201;48.758;9.290;2023-09-30T05:11:01;15.30;2.90
429;DHT22;201;48.758;9.290;2023-09-30T05:13:27;15.30;2.60
429;DHT22;201;48.758;9.290;2023-09-30T05:15:53;15.30;2.50
429;DHT22;201;48.758;9.290;2023-09-30T05:18:18;15.30;2.30
429;DHT22;201;48.758;9.290;2023-09-30T05:20:44;15.30;2.30
429;DHT22;201;48.758;9.290;2023-09-30T05:23:09;15.30;2.30
429;DHT22;201;48.758;9.290;2023-09-30T05:25:38;15.30;2.30
429;DHT22;201;48.758;9.290;2023-09-30T05:28:05;15.30;2.40
429;DHT22;201;48.758;9.290;2023-09-30T05:30:32;15.20;2.20
429;DHT22;201;48.758;9.290;2023-09-30T05:32:59;15.20;2.20
429;DHT22;201;48.758;9.290;2023-09-30T05:35:25;15.20;2.30
429;DHT22;201;48.758;9.290;2023-09-30T05:37:51;15.20;2.20
429;DHT22;201;48.758;9.290;2023-09-30T05:40:20;15.20;2.20
429;DHT22;201;48.758;9.290;2023-09-30T05:42:58;15.20;2.20
429;DHT22;201;48.758;9.290;2023-09-30T05:45:25;15.20;2.40
429;DHT22;201;48.758;9.290;2023-09-30T05:47:54;15.20;2.60
429;DHT22;201;48.758;9.290;2023-09-30T05:50:21;15.20;2.80
429;DHT22;201;48.758;9.290;2023-09-30T05:52:52;15.30;2.70
429;DHT22;201;48.758;9.290;2023-09-30T05:55:18;15.30;2.50
429;DHT22;201;48.758;9.290;2023-09-30T05:57:48;15.40;2.50
429;DHT22;201;48.758;9.290;2023-09-30T06:00:15;15.50;2.30
429;DHT22;201;48.758;9.290;2023-09-30T06:03:08;15.60;2.30
429;DHT22;201;48.758;9.290;2023-09-30T06:05:34;15.70;2.20
429;DHT22;201;48.758;9.290;2023-09-30T06:08:03;15.70;2.10
429;DHT22;201;48.758;9.290;2023-09-30T06:10:29;15.90;2.20
429;DHT22;201;48.758;9.290;2023-09-30T06:12:56;15.90;1.90
429;DHT22;201;48.758;9.290;2023-09-30T06:15:23;16.00;1.60
429;DHT22;201;48.758;9.290;2023-09-30T06:17:51;16.10;1.20
429;DHT22;201;48.758;9.290;2023-09-30T06:20:18;16.10;1.00
429;DHT22;201;48.758;9.290;2023-09-30T06:22:44;16.20;1.00
429;DHT22;201;48.758;9.290;2023-09-30T06:25:17;16.20;1.00
429;DHT22;201;48.758;9.290;2023-09-30T06:27:44;16.20;1.00
429;DHT22;201;48.758;9.290;2023-09-30T06:30:10;16.20;1.00
429;DHT22;201;48.758;9.290;2023-09-30T06:32:36;16.30;1.00
429;DHT22;201;48.758;9.290;2023-09-30T06:35:05;16.40;1.00
429;DHT22;201;48.758;9.290;2023-09-30T06:37:32;16.50;1.00
429;DHT22;201;48.758;9.290;2023-09-30T06:39:58;16.50;1.00
429;DHT22;201;48.758;9.290;2023-09-30T06:42:24;16.60;1.00
429;DHT22;201;48.758;9.290;2023-09-30T06:44:50;16.60;1.00
429;DHT22;201;48.758;9.290;2023-09-30T06:47:15;16.60;1.00
429;DHT22;201;48.758;9.290;2023-09-30T06:49:41;16.70;1.00
429;DHT22;201;48.758;9.290;2023-09-30T06:52:07;16.90;1.00
429;DHT22;201;48.758;9.290;2023-09-30T06:54:33;17.10;1.00
429;DHT22;201;48.758;9.290;2023-09-30T06:56:58;17.50;1.00
429;DHT22;201;48.758;9.290;2023-09-30T06:59:24;17.80;1.00
429;DHT22;201;48.758;9.290;2023-09-30T07:01:50;18.00;1.00
429;DHT22;201;48.758;9.290;2023-09-30T07:04:16;17.90;1.00
429;DHT22;201;48.758;9.290;2023-09-30T07:06:42;17.80;1.00
429;DHT22;201;48.758;9.290;2023-09-30T07:09:07;17.60;1.00
429;DHT22;201;48.758;9.290;2023-09-30T07:11:34;17.10;1.00
429;DHT22;201;48.758;9.290;2023-09-30T07:14:00;17.00;1.00
429;DHT22;201;48.758;9.290;2023-09-30T07:16:26;17.00;1.00
429;DHT22;201;48.758;9.290;2023-09-30T07:18:51;17.00;1.00
429;DHT22;201;48.758;9.290;2023-09-30T07:21:17;16.90;1.00
429;DHT22;201;48.758;9.290;2023-09-30T07:23:43;17.00;1.00
429;DHT22;201;48.758;9.290;2023-09-30T07:26:09;17.20;1.00
429;DHT22;201;48.758;9.290;2023-09-30T07:28:34;18.00;1.00
429;DHT22;201;48.758;9.290;2023-09-30T07:31:00;18.70;1.00
429;DHT22;201;48.758;9.290;2023-09-30T07:33:25;19.10;1.00
429;DHT22;201;48.758;9.290;2023-09-30T07:35:51;19.30;1.00
429;DHT22;201;48.758;9.290;2023-09-30T07:38:17;19.70;1.00
429;DHT22;201;48.758;9.290;2023-09-30T07:40:43;19.70;1.00
429;DHT22;201;48.758;9.290;2023-09-30T07:43:08;19.50;1.00
429;DHT22;201;48.758;9.290;2023-09-30T07:45:34;19.40;1.00
429;DHT22;201;48.758;9.290;2023-09-30T07:47:59;18.80;1.00
429;DHT22;201;48.758;9.290;2023-09-30T07:50:26;18.40;1.00
429;DHT22;201;48.758;9.290;2023-09-30T07:52:51;18.10;1.00
429;DHT22;201;48.758;9.290;2023-09-30T07:55:17;18.30;1.00
429;DHT22;201;48.758;9.290;2023-09-30T07:57:43;18.60;1.00
429;DHT22;201;48.758;9.290;2023-09-30T08:00:09;19.50;1.00
429;DHT22;201;48.758;9.290;2023-09-30T08:02:42;20.30;1.00
429;DHT22;201;48.758;9.290;2023-09-30T08:05:09;20.90;1.00
429;DHT22;201;48.758;9.290;2023-09-30T08:07:34;21.30;1.00
429;DHT22;201;48.758;9.290;2023-09-30T08:10:01;21.10;1.00
429;DHT22;201;48.758;9.290;2023-09-30T08:12:29;21.30;1.00
429;DHT22;201;48.758;9.290;2023-09-30T08:14:55;21.60;1.00
429;DHT22;201;48.758;9.290;2023-09-30T08:17:20;21.80;1.00
429;DHT22;201;48.758;9.290;2023-09-30T08:19:46;22.20;1.00
429;DHT22;201;48.758;9.290;2023-09-30T08:22:13;22.40;1.00
429;DHT22;201;48.758;9.290;2023-09-30T08:24:39;22.60;1.00
429;DHT22;201;48.758;9.290;2023-09-30T08:27:04;22.80;1.00
429;DHT22;201;48.758;9.290;2023-09-30T08:29:35;22.80;1.00
429;DHT22;201;48.758;9.290;2023-09-30T08:32:02;22.90;1.00
429;DHT22;201;48.758;9.290;2023-09-30T08:34:28;23.00;1.00
429;DHT22;201;48.758;9.290;2023-09-30T08:36:54;23.10;1.00
429;DHT22;201;48.758;9.290;2023-09-30T08:39:19;24.40;1.00
429;DHT22;201;48.758;9.290;2023-09-30T08:41:45;24.80;1.00
429;DHT22;201;48.758;9.290;2023-09-30T08:44:11;24.70;1.00
429;DHT22;201;48.758;9.290;2023-09-30T08:46:39;24.50;1.00
429;DHT22;201;48.758;9.290;2023-09-30T08:49:05;24.10;1.00
429;DHT22;201;48.758;9.290;2023-09-30T08:51:35;23.80;1.00
429;DHT22;201;48.758;9.290;2023-09-30T08:54:01;23.30;1.00
429;DHT22;201;48.758;9.290;2023-09-30T08:56:30;22.80;1.00
429;DHT22;201;48.758;9.290;2023-09-30T08:58:59;22.50;1.00
429;DHT22;201;48.758;9.290;2023-09-30T09:01:27;22.30;1.00
429;DHT22;201;48.758;9.290;2023-09-30T09:03:53;22.00;1.00
429;DHT22;201;48.758;9.290;2023-09-30T09:06:20;21.80;1.00
429;DHT22;201;48.758;9.290;2023-09-30T09:08:46;21.50;1.00
429;DHT22;201;48.758;9.290;2023-09-30T09:11:12;21.10;1.00
429;DHT22;201;48.758;9.290;2023-09-30T09:13:50;21.00;1.00
429;DHT22;201;48.758;9.290;2023-09-30T09:16:17;20.80;1.00
429;DHT22;201;48.758;9.290;2023-09-30T09:18:44;20.70;1.00
429;DHT22;201;48.758;9.290;2023-09-30T09:21:19;20.50;1.00
429;DHT22;201;48.758;9.290;2023-09-30T09:23:50;20.40;1.00
429;DHT22;201;48.758;9.290;2023-09-30T09:26:30;20.30;1.00
429;DHT22;201;48.758;9.290;2023-09-30T09:28:58;20.30;1.00
429;DHT22;201;48.758;9.290;2023-09-30T09:31:36;20.50;1.00
429;DHT22;201;48.758;9.290;2023-09-30T09:34:03;20.50;1.00
429;DHT22;201;48.758;9.290;2023-09-30T09:36:42;20.30;1.00
429;DHT22;201;48.758;9.290;2023-09-30T09:39:08;20.40;1.00
429;DHT22;201;48.758;9.290;2023-09-30T09:41:54;21.10;1.00
429;DHT22;201;48.758;9.290;2023-09-30T09:44:22;21.40;1.00
429;DHT22;201;48.758;9.290;2023-09-30T09:46:48;20.90;1.00
429;DHT22;201;48.758;9.290;2023-09-30T09:49:16;21.40;1.00
429;DHT22;201;48.758;9.290;2023-09-30T09:51:46;23.10;1.00
429;DHT22;201;48.758;9.290;2023-09-30T09:54:12;24.30;1.00
429;DHT22;201;48.758;9.290;2023-09-30T09:56:39;24.60;1.00
429;DHT22;201;48.758;9.290;2023-09-30T09:59:05;24.60;1.00
429;DHT22;201;48.758;9.290;2023-09-30T10:01:33;25.20;1.00
429;DHT22;201;48.758;9.290;2023-09-30T10:04:00;25.80;1.00
429;DHT22;201;48.758;9.290;2023-09-30T10:06:27;26.20;1.00
429;DHT22;201;48.758;9.290;2023-09-30T10:08:53;25.70;1.00
429;DHT22;201;48.758;9.290;2023-09-30T10:11:20;25.30;1.00
429;DHT22;201;48.758;9.290;2023-09-30T10:13:57;26.60;1.00
429;DHT22;201;48.758;9.290;2023-09-30T10:19:12;28.30;1.00
429;DHT22;201;48.758;9.290;2023-09-30T10:21:38;26.00;1.00
429;DHT22;201;48.758;9.290;2023-09-30T10:29:59;22.50;1.00
429;DHT22;201;48.758;9.290;2023-09-30T10:35:17;22.20;1.00
429;DHT22;201;48.758;9.290;2023-09-30T10:37:43;21.80;1.00
429;DHT22;201;48.758;9.290;2023-09-30T10:40:10;21.60;1.00
429;DHT22;201;48.758;9.290;2023-09-30T10:42:50;21.60;1.00
429;DHT22;201;48.758;9.290;2023-09-30T10:50:51;22.00;1.00
429;DHT22;201;48.758;9.290;2023-09-30T10:53:18;21.90;1.00
429;DHT22;201;48.758;9.290;2023-09-30T10:55:45;21.50;1.00
429;DHT22;201;48.758;9.290;2023-09-30T10:58:15;21.40;1.00
429;DHT22;201;48.758;9.290;2023-09-30T11:00:53;21.60;1.00
429;DHT22;201;48.758;9.290;2023-09-30T11:03:20;22.10;1.00
429;DHT22;201;48.758;9.290;2023-09-30T11:05:50;22.50;1.00
429;DHT22;201;48.758;9.290;2023-09-30T11:08:17;23.00;1.00
429;DHT22;201;48.758;9.290;2023-09-30T11:10:48;23.40;1.00
429;DHT22;201;48.758;9.290;2023-09-30T11:13:16;23.90;1.00
429;DHT22;201;48.758;9.290;2023-09-30T11:15:43;24.10;1.00
429;DHT22;201;48.758;9.290;2023-09-30T11:18:15;24.30;1.00
429;DHT22;201;48.758;9.290;2023-09-30T11:20:42;24.50;1.00
429;DHT22;201;48.758;9.290;2023-09-30T11:23:08;24.90;1.00
429;DHT22;201;48.758;9.290;2023-09-30T11:25:37;25.10;1.00
429;DHT22;201;48.758;9.290;2023-09-30T11:31:00;24.00;1.00
429;DHT22;201;48.758;9.290;2023-09-30T11:33:27;23.30;1.00
429;DHT22;201;48.758;9.290;2023-09-30T11:36:11;22.70;1.00
429;DHT22;201;48.758;9.290;2023-09-30T11:38:36;22.10;1.00
429;DHT22;201;48.758;9.290;2023-09-30T11:41:09;21.90;1.00
429;DHT22;201;48.758;9.290;2023-09-30T11:43:35;21.60;1.00
429;DHT22;201;48.758;9.290;2023-09-30T11:46:11;21.30;1.00
429;DHT22;201;48.758;9.290;2023-09-30T11:48:37;20.90;1.00
429;DHT22;201;48.758;9.290;2023-09-30T11:51:04;20.80;1.00
429;DHT22;201;48.758;9.290;2023-09-30T11:53:30;20.40;1.00
429;DHT22;201;48.758;9.290;2023-09-30T11:55:57;20.50;1.00
429;DHT22;201;48.758;9.290;2023-09-30T11:58:27;21.00;1.00
429;DHT22;201;48.758;9.290;2023-09-30T12:00:58;21.40;1.00
429;DHT22;201;48.758;9.290;2023-09-30T12:03:25;21.40;1.00
429;DHT22;201;48.758;9.290;2023-09-30T12:05:55;21.90;1.00
429;DHT22;201;48.758;9.290;2023-09-30T12:08:22;22.10;1.00
429;DHT22;201;48.758;9.290;2023-09-30T12:10:48;22.60;1.00
429;DHT22;201;48.758;9.290;2023-09-30T12:13:14;23.00;1.00
429;DHT22;201;48.758;9.290;2023-09-30T12:15:41;23.50;1.00
429;DHT22;201;48.758;9.290;2023-09-30T12:18:06;23.90;1.00
429;DHT22;201;48.758;9.290;2023-09-30T12:20:32;24.00;1.00
429;DHT22;201;48.758;9.290;2023-09-30T12:22:58;23.50;1.00
429;DHT22;201;48.758;9.290;2023-09-30T12:25:24;23.10;1.00
429;DHT22;201;48.758;9.290;2023-09-30T12:27:50;22.90;1.00
429;DHT22;201;48.758;9.290;2023-09-30T12:30:16;22.80;1.00
429;DHT22;201;48.758;9.290;2023-09-30T12:32:45;22.60;1.00
429;DHT22;201;48.758;9.290;2023-09-30T12:35:11;22.80;1.00
429;DHT22;201;48.758;9.290;2023-09-30T12:37:37;22.30;1.00
429;DHT22;201;48.758;9.290;2023-09-30T12:40:07;22.40;1.00
429;DHT22;201;48.758;9.290;2023-09-30T12:42:33;22.30;1.00
429;DHT22;201;48.758;9.290;2023-09-30T12:45:01;21.70;1.00
429;DHT22;201;48.758;9.290;2023-09-30T12:47:27;21.40;1.00
429;DHT22;201;48.758;9.290;2023-09-30T12:49:52;21.40;1.00
429;DHT22;201;48.758;9.290;2023-09-30T12:52:20;21.30;1.00
429;DHT22;201;48.758;9.290;2023-09-30T12:54:45;21.40;1.00
429;DHT22;201;48.758;9.290;2023-09-30T12:57:11;21.30;1.00
429;DHT22;201;48.758;9.290;2023-09-30T12:59:39;21.30;1.00
429;DHT22;201;48.758;9.290;2023-09-30T13:02:04;21.40;1.00
429;DHT22;201;48.758;9.290;2023-09-30T13:04:31;21.60;1.00
429;DHT22;201;48.758;9.290;2023-09-30T13:06:57;22.00;1.00
429;DHT22;201;48.758;9.290;2023-09-30T13:09:23;22.10;1.00
429;DHT22;201;48.758;9.290;2023-09-30T13:11:49;22.20;1.00
429;DHT22;201;48.758;9.290;2023-09-30T13:14:14;21.90;1.00
429;DHT22;201;48.758;9.290;2023-09-30T13:16:40;21.90;1.00
429;DHT22;201;48.758;9.290;2023-09-30T13:19:06;22.30;1.00
429;DHT22;201;48.758;9.290;2023-09-30T13:21:32;22.60;1.00
429;DHT22;201;48.758;9.290;2023-09-30T13:23:57;22.40;1.00
429;DHT22;201;48.758;9.290;2023-09-30T13:26:23;22.20;1.00
429;DHT22;201;48.758;9.290;2023-09-30T13:28:49;22.00;1.00
429;DHT22;201;48.758;9.290;2023-09-30T13:31:15;22.20;1.00
429;DHT22;201;48.758;9.290;2023-09-30T13:33:40;22.40;1.00
429;DHT22;201;48.758;9.290;2023-09-30T13:36:06;22.70;1.00
429;DHT22;201;48.758;9.290;2023-09-30T13:38:31;22.90;1.00
429;DHT22;201;48.758;9.290;2023-09-30T13:40:57;23.00;1.00
429;DHT22;201;48.758;9.290;2023-09-30T13:43:22;23.10;1.00
429;DHT22;201;48.758;9.290;2023-09-30T13:45:48;23.30;1.00
429;DHT22;201;48.758;9.290;2023-09-30T13:48:14;22.90;1.00
429;DHT22;201;48.758;9.290;2023-09-30T13:50:39;22.50;1.00
429;DHT22;201;48.758;9.290;2023-09-30T13:53:05;22.20;1.00
429;DHT22;201;48.758;9.290;2023-09-30T13:55:30;22.40;1.00
429;DHT22;201;48.758;9.290;2023-09-30T13:57:56;22.40;1.00
429;DHT22;201;48.758;9.290;2023-09-30T14:00:22;22.00;1.00
429;DHT22;201;48.758;9.290;2023-09-30T14:02:47;21.70;1.00
429;DHT22;201;48.758;9.290;2023-09-30T14:05:13;21.60;1.00
429;DHT22;201;48.758;9.290;2023-09-30T14:07:39;21.40;1.00
429;DHT22;201;48.758;9.290;2023-09-30T14:10:09;21.30;1.00
429;DHT22;201;48.758;9.290;2023-09-30T14:12:36;21.10;1.00
429;DHT22;201;48.758;9.290;2023-09-30T14:15:01;21.00;1.00
429;DHT22;201;48.758;9.290;2023-09-30T14:17:26;20.90;1.00
429;DHT22;201;48.758;9.290;2023-09-30T14:19:52;20.80;1.00
429;DHT22;201;48.758;9.290;2023-09-30T14:22:18;20.90;1.00
429;DHT22;201;48.758;9.290;2023-09-30T14:24:43;20.90;1.00
429;DHT22;201;48.758;9.290;2023-09-30T14:27:09;20.80;1.00
429;DHT22;201;48.758;9.290;2023-09-30T14:29:34;20.60;1.00
429;DHT22;201;48.758;9.290;2023-09-30T14:32:00;20.50;1.00
429;DHT22;201;48.758;9.290;2023-09-30T14:34:25;20.40;1.00
429;DHT22;201;48.758;9.290;2023-09-30T14:36:51;20.30;1.00
429;DHT22;201;48.758;9.290;2023-09-30T14:39:17;20.20;1.00
429;DHT22;201;48.758;9.290;2023-09-30T14:41:44;20.20;1.00
429;DHT22;201;48.758;9.290;2023-09-30T14:44:09;20.00;1.00
429;DHT22;201;48.758;9.290;2023-09-30T14:46:37;20.10;1.00
429;DHT22;201;48.758;9.290;2023-09-30T14:49:03;20.20;1.00
429;DHT22;201;48.758;9.290;2023-09-30T14:51:29;20.10;1.00
429;DHT22;201;48.758;9.290;2023-09-30T14:53:55;20.10;1.00
429;DHT22;201;48.758;9.290;2023-09-30T14:56:20;20.00;1.00
429;DHT22;201;48.758;9.290;2023-09-30T14:58:46;20.00;1.00
429;DHT22;201;48.758;9.290;2023-09-30T15:01:12;20.10;1.00
429;DHT22;201;48.758;9.290;2023-09-30T15:03:38;20.10;1.00
429;DHT22;201;48.758;9.290;2023-09-30T15:06:05;20.00;1.00
429;DHT22;201;48.758;9.290;2023-09-30T15:08:31;19.90;1.00
429;DHT22;201;48.758;9.290;2023-09-30T15:10:58;19.80;1.00
429;DHT22;201;48.758;9.290;2023-09-30T15:13:24;19.70;1.00
429;DHT22;201;48.758;9.290;2023-09-30T15:15:50;19.70;1.00
429;DHT22;201;48.758;9.290;2023-09-30T15:18:15;19.60;1.00
429;DHT22;201;48.758;9.290;2023-09-30T15:20:41;19.60;1.00
429;DHT22;201;48.758;9.290;2023-09-30T15:23:06;19.60;1.00
429;DHT22;201;48.758;9.290;2023-09-30T15:25:32;19.50;1.00
429;DHT22;201;48.758;9.290;2023-09-30T15:27:57;19.40;1.00
429;DHT22;201;48.758;9.290;2023-09-30T15:30:23;19.40;1.00
429;DHT22;201;48.758;9.290;2023-09-30T15:32:48;19.40;1.00
429;DHT22;201;48.758;9.290;2023-09-30T15:35:14;19.40;1.00
429;DHT22;201;48.758;9.290;2023-09-30T15:37:40;19.30;1.00
429;DHT22;201;48.758;9.290;2023-09-30T15:40:06;19.40;1.00
429;DHT22;201;48.758;9.290;2023-09-30T15:42:33;19.20;1.00
429;DHT22;201;48.758;9.290;2023-09-30T15:44:58;19.20;1.00
429;DHT22;201;48.758;9.290;2023-09-30T15:47:24;19.20;1.00
429;DHT22;201;48.758;9.290;2023-09-30T15:49:49;19.20;1.00
429;DHT22;201;48.758;9.290;2023-09-30T15:52:16;19.10;1.00
429;DHT22;201;48.758;9.290;2023-09-30T15:54:41;19.10;1.00
429;DHT22;201;48.758;9.290;2023-09-30T15:57:07;19.00;1.00
429;DHT22;201;48.758;9.290;2023-09-30T15:59:34;19.00;1.00
429;DHT22;201;48.758;9.290;2023-09-30T16:01:59;19.00;1.00
429;DHT22;201;48.758;9.290;2023-09-30T16:04:25;18.90;1.00
429;DHT22;201;48.758;9.290;2023-09-30T16:06:50;18.90;1.00
429;DHT22;201;48.758;9.290;2023-09-30T16:09:16;18.90;1.00
429;DHT22;201;48.758;9.290;2023-09-30T16:11:41;18.80;1.00
429;DHT22;201;48.758;9.290;2023-09-30T16:14:07;18.80;1.00
429;DHT22;201;48.758;9.290;2023-09-30T16:16:33;18.70;1.00
429;DHT22;201;48.758;9.290;2023-09-30T16:18:59;18.70;1.00
429;DHT22;201;48.758;9.290;2023-09-30T16:21:25;18.60;1.00
429;DHT22;201;48.758;9.290;2023-09-30T16:23:51;18.60;1.00
429;DHT22;201;48.758;9.290;2023-09-30T16:26:17;18.50;1.00
429;DHT22;201;48.758;9.290;2023-09-30T16:28:43;18.50;1.00
429;DHT22;201;48.758;9.290;2023-09-30T16:31:08;18.40;1.00
429;DHT22;201;48.758;9.290;2023-09-30T16:33:34;18.40;1.00
429;DHT22;201;48.758;9.290;2023-09-30T16:36:04;18.30;1.00
429;DHT22;201;48.758;9.290;2023-09-30T16:38:29;18.20;1.00
429;DHT22;201;48.758;9.290;2023-09-30T16:40:55;18.20;1.00
429;DHT22;201;48.758;9.290;2023-09-30T16:43:21;18.10;1.00
429;DHT22;201;48.758;9.290;2023-09-30T16:45:46;18.00;1.00
429;DHT22;201;48.758;9.290;2023-09-30T16:48:14;17.90;1.00
429;DHT22;201;48.758;9.290;2023-09-30T16:50:42;17.90;1.00
429;DHT22;201;48.758;9.290;2023-09-30T16:53:09;17.80;1.00
429;DHT22;201;48.758;9.290;2023-09-30T16:55:35;17.70;1.00
429;DHT22;201;48.758;9.290;2023-09-30T16:58:01;17.70;1.00
429;DHT22;201;48.758;9.290;2023-09-30T17:00:26;17.60;1.00
429;DHT22;201;48.758;9.290;2023-09-30T17:02:53;17.50;1.00
429;DHT22;201;48.758;9.290;2023-09-30T17:05:19;17.40;1.00
429;DHT22;201;48.758;9.290;2023-09-30T17:07:45;17.40;1.00